sensor_id;sensor_type;location;lat;lon;timestamp;P1;durP1;ratioP1;P2;durP2;ratioP2
33190;SDS011;19554;42.652;23.364;2023-03-13T00:01:46;8.10;;;6.43;;
33190;SDS011;19554;42.652;23.364;2023-03-13T00:04:13;10.20;;;6.20;;
33190;SDS011;19554;42.652;23.364;2023-03-13T00:06:38;9.30;;;5.72;;
33190;SDS011;19554;42.652;23.364;2023-03-13T00:09:05;8.75;;;6.82;;
33190;SDS011;19554;42.652;23.364;2023-03-13T00:11:32;7.53;;;5.43;;
33190;SDS011;19554;42.652;23.364;2023-03-13T00:13:59;8.88;;;6.45;;
33190;SDS011;19554;42.652;23.364;2023-03-13T00:16:26;9.98;;;7.07;;
33190;SDS011;19554;42.652;23.364;2023-03-13T00:18:54;9.63;;;6.38;;
33190;SDS011;19554;42.652;23.364;2023-03-13T00:21:22;9.60;;;5.82;;
33190;SDS011;19554;42.652;23.364;2023-03-13T00:23:49;8.98;;;6.00;;
33190;SDS011;19554;42.652;23.364;2023-03-13T00:26:15;8.45;;;6.05;;
33190;SDS011;19554;42.652;23.364;2023-03-13T00:28:43;8.85;;;6.20;;
33190;SDS011;19554;42.652;23.364;2023-03-13T00:31:10;9.73;;;6.68;;
33190;SDS011;19554;42.652;23.364;2023-03-13T00:33:38;8.95;;;6.80;;
33190;SDS011;19554;42.652;23.364;2023-03-13T00:36:06;10.18;;;6.72;;
33190;SDS011;19554;42.652;23.364;2023-03-13T00:38:33;9.93;;;7.68;;
33190;SDS011;19554;42.652;23.364;2023-03-13T00:41:00;21.65;;;11.27;;
33190;SDS011;19554;42.652;23.364;2023-03-13T00:43:27;20.45;;;10.63;;
33190;SDS011;19554;42.652;23.364;2023-03-13T00:45:53;30.00;;;11.15;;
33190;SDS011;19554;42.652;23.364;2023-03-13T00:48:18;26.42;;;12.82;;
33190;SDS011;19554;42.652;23.364;2023-03-13T00:50:44;17.45;;;10.18;;
33190;SDS011;19554;42.652;23.364;2023-03-13T00:53:09;21.50;;;10.27;;
33190;SDS011;19554;42.652;23.364;2023-03-13T00:55:35;20.70;;;10.27;;
33190;SDS011;19554;42.652;23.364;2023-03-13T00:58:00;16.85;;;9.80;;
33190;SDS011;19554;42.652;23.364;2023-03-13T01:00:25;21.02;;;9.82;;
33190;SDS011;19554;42.652;23.364;2023-03-13T01:02:51;13.48;;;6.85;;
33190;SDS011;19554;42.652;23.364;2023-03-13T01:05:16;19.70;;;11.35;;
33190;SDS011;19554;42.652;23.364;2023-03-13T01:07:41;16.35;;;9.45;;
33190;SDS011;19554;42.652;23.364;2023-03-13T01:10:07;22.52;;;11.90;;
33190;SDS011;19554;42.652;23.364;2023-03-13T01:12:33;16.30;;;9.95;;
33190;SDS011;19554;42.652;23.364;2023-03-13T01:14:58;13.55;;;7.30;;
33190;SDS011;19554;42.652;23.364;2023-03-13T01:17:24;12.38;;;7.57;;
33190;SDS011;19554;42.652;23.364;2023-03-13T01:19:49;10.93;;;7.28;;
33190;SDS011;19554;42.652;23.364;2023-03-13T01:22:14;8.90;;;6.70;;
33190;SDS011;19554;42.652;23.364;2023-03-13T01:24:40;13.48;;;7.18;;
33190;SDS011;19554;42.652;23.364;2023-03-13T01:27:05;13.60;;;7.47;;
33190;SDS011;19554;42.652;23.364;2023-03-13T01:29:30;14.88;;;8.77;;
33190;SDS011;19554;42.652;23.364;2023-03-13T01:31:56;11.63;;;7.85;;
33190;SDS011;19554;42.652;23.364;2023-03-13T01:34:21;17.20;;;10.13;;
33190;SDS011;19554;42.652;23.364;2023-03-13T01:36:47;23.65;;;13.23;;
33190;SDS011;19554;42.652;23.364;2023-03-13T01:39:14;15.77;;;9.82;;
33190;SDS011;19554;42.652;23.364;2023-03-13T01:41:41;20.48;;;10.90;;
33190;SDS011;19554;42.652;23.364;2023-03-13T01:44:27;17.95;;;10.13;;
33190;SDS011;19554;42.652;23.364;2023-03-13T01:46:52;18.52;;;10.27;;
33190;SDS011;19554;42.652;23.364;2023-03-13T01:49:22;19.52;;;11.32;;
33190;SDS011;19554;42.652;23.364;2023-03-13T01:51:53;18.20;;;9.77;;
33190;SDS011;19554;42.652;23.364;2023-03-13T01:54:25;17.52;;;10.10;;
33190;SDS011;19554;42.652;23.364;2023-03-13T01:57:00;14.35;;;9.77;;
33190;SDS011;19554;42.652;23.364;2023-03-13T01:59:34;17.85;;;8.13;;
33190;SDS011;19554;42.652;23.364;2023-03-13T02:02:04;16.88;;;7.82;;
33190;SDS011;19554;42.652;23.364;2023-03-13T02:04:34;12.50;;;7.47;;
33190;SDS011;19554;42.652;23.364;2023-03-13T02:07:04;11.02;;;6.72;;
33190;SDS011;19554;42.652;23.364;2023-03-13T02:09:35;8.65;;;6.13;;
33190;SDS011;19554;42.652;23.364;2023-03-13T02:12:06;7.82;;;5.43;;
33190;SDS011;19554;42.652;23.364;2023-03-13T02:14:34;10.48;;;6.50;;
33190;SDS011;19554;42.652;23.364;2023-03-13T02:17:03;10.05;;;6.15;;
33190;SDS011;19554;42.652;23.364;2023-03-13T02:19:30;9.43;;;5.97;;
33190;SDS011;19554;42.652;23.364;2023-03-13T02:22:11;11.05;;;6.43;;
33190;SDS011;19554;42.652;23.364;2023-03-13T02:24:54;10.85;;;6.82;;
33190;SDS011;19554;42.652;23.364;2023-03-13T02:27:34;11.85;;;7.20;;
33190;SDS011;19554;42.652;23.364;2023-03-13T02:30:00;12.48;;;6.57;;
33190;SDS011;19554;42.652;23.364;2023-03-13T02:32:26;14.98;;;7.40;;
33190;SDS011;19554;42.652;23.364;2023-03-13T02:34:55;10.27;;;7.07;;
33190;SDS011;19554;42.652;23.364;2023-03-13T02:37:25;9.45;;;6.70;;
33190;SDS011;19554;42.652;23.364;2023-03-13T02:39:53;12.32;;;7.18;;
33190;SDS011;19554;42.652;23.364;2023-03-13T02:42:21;11.23;;;6.85;;
33190;SDS011;19554;42.652;23.364;2023-03-13T02:44:47;10.38;;;7.20;;
33190;SDS011;19554;42.652;23.364;2023-03-13T02:47:19;11.85;;;7.28;;
33190;SDS011;19554;42.652;23.364;2023-03-13T02:49:46;13.15;;;6.93;;
33190;SDS011;19554;42.652;23.364;2023-03-13T02:52:13;11.38;;;6.13;;
33190;SDS011;19554;42.652;23.364;2023-03-13T02:54:40;11.02;;;6.18;;
33190;SDS011;19554;42.652;23.364;2023-03-13T02:57:08;10.57;;;6.53;;
33190;SDS011;19554;42.652;23.364;2023-03-13T02:59:34;10.32;;;6.80;;
33190;SDS011;19554;42.652;23.364;2023-03-13T03:01:59;9.73;;;6.90;;
33190;SDS011;19554;42.652;23.364;2023-03-13T03:04:25;13.57;;;7.30;;
33190;SDS011;19554;42.652;23.364;2023-03-13T03:06:51;18.88;;;7.90;;
33190;SDS011;19554;42.652;23.364;2023-03-13T03:09:16;12.77;;;7.35;;
33190;SDS011;19554;42.652;23.364;2023-03-13T03:11:43;16.52;;;7.97;;
33190;SDS011;19554;42.652;23.364;2023-03-13T03:14:09;16.15;;;7.45;;
33190;SDS011;19554;42.652;23.364;2023-03-13T03:16:36;19.50;;;7.40;;
33190;SDS011;19554;42.652;23.364;2023-03-13T03:19:02;17.10;;;8.38;;
33190;SDS011;19554;42.652;23.364;2023-03-13T03:21:28;17.58;;;7.68;;
33190;SDS011;19554;42.652;23.364;2023-03-13T03:23:53;16.75;;;7.35;;
33190;SDS011;19554;42.652;23.364;2023-03-13T03:26:18;15.38;;;7.47;;
33190;SDS011;19554;42.652;23.364;2023-03-13T03:28:44;16.35;;;10.80;;
33190;SDS011;19554;42.652;23.364;2023-03-13T03:31:11;22.65;;;13.40;;
33190;SDS011;19554;42.652;23.364;2023-03-13T03:33:37;22.60;;;13.82;;
33190;SDS011;19554;42.652;23.364;2023-03-13T03:36:05;23.60;;;15.25;;
33190;SDS011;19554;42.652;23.364;2023-03-13T03:38:32;18.98;;;12.10;;
33190;SDS011;19554;42.652;23.364;2023-03-13T03:40:58;20.85;;;12.68;;
33190;SDS011;19554;42.652;23.364;2023-03-13T03:43:23;19.63;;;13.05;;
33190;SDS011;19554;42.652;23.364;2023-03-13T03:45:49;22.08;;;12.95;;
33190;SDS011;19554;42.652;23.364;2023-03-13T03:48:14;23.77;;;14.88;;
33190;SDS011;19554;42.652;23.364;2023-03-13T03:50:39;25.33;;;13.52;;
33190;SDS011;19554;42.652;23.364;2023-03-13T03:53:05;20.45;;;13.13;;
33190;SDS011;19554;42.652;23.364;2023-03-13T03:55:31;20.63;;;12.25;;
33190;SDS011;19554;42.652;23.364;2023-03-13T03:57:57;18.92;;;11.68;;
33190;SDS011;19554;42.652;23.364;2023-03-13T04:00:22;22.48;;;15.02;;
33190;SDS011;19554;42.652;23.364;2023-03-13T04:02:48;24.60;;;15.18;;
33190;SDS011;19554;42.652;23.364;2023-03-13T04:05:13;29.85;;;17.38;;
33190;SDS011;19554;42.652;23.364;2023-03-13T04:07:38;25.85;;;16.42;;
33190;SDS011;19554;42.652;23.364;2023-03-13T04:10:04;25.13;;;15.25;;
33190;SDS011;19554;42.652;23.364;2023-03-13T04:12:30;22.55;;;16.25;;
33190;SDS011;19554;42.652;23.364;2023-03-13T04:14:55;23.95;;;14.65;;
33190;SDS011;19554;42.652;23.364;2023-03-13T04:17:20;20.30;;;13.98;;
33190;SDS011;19554;42.652;23.364;2023-03-13T04:19:46;23.30;;;14.35;;
33190;SDS011;19554;42.652;23.364;2023-03-13T04:22:11;27.02;;;14.55;;
33190;SDS011;19554;42.652;23.364;2023-03-13T04:24:37;21.02;;;15.15;;
33190;SDS011;19554;42.652;23.364;2023-03-13T04:27:02;25.48;;;14.98;;
33190;SDS011;19554;42.652;23.364;2023-03-13T04:29:30;24.77;;;13.00;;
33190;SDS011;19554;42.652;23.364;2023-03-13T04:31:56;22.20;;;12.52;;
33190;SDS011;19554;42.652;23.364;2023-03-13T04:34:22;19.40;;;11.07;;
33190;SDS011;19554;42.652;23.364;2023-03-13T04:36:47;21.23;;;11.32;;
33190;SDS011;19554;42.652;23.364;2023-03-13T04:39:12;23.42;;;11.35;;
33190;SDS011;19554;42.652;23.364;2023-03-13T04:41:38;21.77;;;12.05;;
33190;SDS011;19554;42.652;23.364;2023-03-13T04:44:03;26.90;;;12.27;;
33190;SDS011;19554;42.652;23.364;2023-03-13T04:46:29;32.83;;;13.65;;
33190;SDS011;19554;42.652;23.364;2023-03-13T04:48:54;33.20;;;14.52;;
33190;SDS011;19554;42.652;23.364;2023-03-13T04:51:20;24.30;;;14.18;;
33190;SDS011;19554;42.652;23.364;2023-03-13T04:53:45;31.38;;;15.02;;
33190;SDS011;19554;42.652;23.364;2023-03-13T04:56:11;30.65;;;15.35;;
33190;SDS011;19554;42.652;23.364;2023-03-13T04:58:45;26.05;;;15.63;;
33190;SDS011;19554;42.652;23.364;2023-03-13T05:01:10;31.65;;;14.45;;
33190;SDS011;19554;42.652;23.364;2023-03-13T05:03:35;32.28;;;14.85;;
33190;SDS011;19554;42.652;23.364;2023-03-13T05:06:01;33.63;;;16.00;;
33190;SDS011;19554;42.652;23.364;2023-03-13T05:08:26;28.35;;;16.85;;
33190;SDS011;19554;42.652;23.364;2023-03-13T05:10:51;34.85;;;17.45;;
33190;SDS011;19554;42.652;23.364;2023-03-13T05:13:17;32.58;;;15.70;;
33190;SDS011;19554;42.652;23.364;2023-03-13T05:15:42;30.50;;;15.70;;
33190;SDS011;19554;42.652;23.364;2023-03-13T05:18:08;34.65;;;16.42;;
33190;SDS011;19554;42.652;23.364;2023-03-13T05:20:33;32.80;;;17.27;;
33190;SDS011;19554;42.652;23.364;2023-03-13T05:22:58;42.33;;;18.42;;
33190;SDS011;19554;42.652;23.364;2023-03-13T05:25:24;34.53;;;16.80;;
33190;SDS011;19554;42.652;23.364;2023-03-13T05:27:49;24.08;;;15.00;;
33190;SDS011;19554;42.652;23.364;2023-03-13T05:30:15;21.02;;;13.40;;
33190;SDS011;19554;42.652;23.364;2023-03-13T05:32:40;31.08;;;15.32;;
33190;SDS011;19554;42.652;23.364;2023-03-13T05:35:06;32.78;;;15.77;;
33190;SDS011;19554;42.652;23.364;2023-03-13T05:37:31;25.25;;;13.63;;
33190;SDS011;19554;42.652;23.364;2023-03-13T05:39:57;24.60;;;13.02;;
33190;SDS011;19554;42.652;23.364;2023-03-13T05:42:22;20.08;;;12.10;;
33190;SDS011;19554;42.652;23.364;2023-03-13T05:44:47;23.02;;;11.68;;
33190;SDS011;19554;42.652;23.364;2023-03-13T05:47:13;36.05;;;11.65;;
33190;SDS011;19554;42.652;23.364;2023-03-13T05:49:38;27.75;;;12.00;;
33190;SDS011;19554;42.652;23.364;2023-03-13T05:52:03;29.65;;;10.80;;
33190;SDS011;19554;42.652;23.364;2023-03-13T05:54:29;29.58;;;11.68;;
33190;SDS011;19554;42.652;23.364;2023-03-13T05:56:54;24.02;;;12.63;;
33190;SDS011;19554;42.652;23.364;2023-03-13T05:59:20;23.38;;;11.50;;
33190;SDS011;19554;42.652;23.364;2023-03-13T06:01:45;36.83;;;16.77;;
33190;SDS011;19554;42.652;23.364;2023-03-13T06:04:10;41.75;;;14.48;;
33190;SDS011;19554;42.652;23.364;2023-03-13T06:06:36;32.97;;;14.35;;
33190;SDS011;19554;42.652;23.364;2023-03-13T06:09:01;27.83;;;11.57;;
33190;SDS011;19554;42.652;23.364;2023-03-13T06:11:27;40.95;;;15.02;;
33190;SDS011;19554;42.652;23.364;2023-03-13T06:13:52;27.73;;;14.85;;
33190;SDS011;19554;42.652;23.364;2023-03-13T06:16:17;42.95;;;22.02;;
33190;SDS011;19554;42.652;23.364;2023-03-13T06:18:43;45.35;;;22.33;;
33190;SDS011;19554;42.652;23.364;2023-03-13T06:21:08;24.77;;;11.85;;
33190;SDS011;19554;42.652;23.364;2023-03-13T06:23:34;20.92;;;11.63;;
33190;SDS011;19554;42.652;23.364;2023-03-13T06:26:00;19.48;;;11.88;;
33190;SDS011;19554;42.652;23.364;2023-03-13T06:28:26;23.35;;;12.02;;
33190;SDS011;19554;42.652;23.364;2023-03-13T06:30:51;30.15;;;12.35;;
33190;SDS011;19554;42.652;23.364;2023-03-13T06:33:17;18.35;;;11.30;;
33190;SDS011;19554;42.652;23.364;2023-03-13T06:35:42;21.27;;;11.15;;
33190;SDS011;19554;42.652;23.364;2023-03-13T06:38:08;18.90;;;10.70;;
33190;SDS011;19554;42.652;23.364;2023-03-13T06:40:34;18.67;;;11.38;;
33190;SDS011;19554;42.652;23.364;2023-03-13T06:43:00;25.63;;;13.25;;
33190;SDS011;19554;42.652;23.364;2023-03-13T06:45:25;21.42;;;10.52;;
33190;SDS011;19554;42.652;23.364;2023-03-13T06:47:50;18.65;;;10.30;;
33190;SDS011;19554;42.652;23.364;2023-03-13T06:50:16;17.73;;;10.10;;
33190;SDS011;19554;42.652;23.364;2023-03-13T06:52:42;16.52;;;10.10;;
33190;SDS011;19554;42.652;23.364;2023-03-13T06:55:08;19.23;;;10.30;;
33190;SDS011;19554;42.652;23.364;2023-03-13T06:57:33;17.63;;;10.18;;
33190;SDS011;19554;42.652;23.364;2023-03-13T06:59:59;16.35;;;10.73;;
33190;SDS011;19554;42.652;23.364;2023-03-13T07:02:24;18.02;;;10.85;;
33190;SDS011;19554;42.652;23.364;2023-03-13T07:04:50;17.13;;;10.40;;
33190;SDS011;19554;42.652;23.364;2023-03-13T07:07:15;14.93;;;10.48;;
33190;SDS011;19554;42.652;23.364;2023-03-13T07:09:40;21.27;;;11.50;;
33190;SDS011;19554;42.652;23.364;2023-03-13T07:12:06;20.67;;;10.98;;
33190;SDS011;19554;42.652;23.364;2023-03-13T07:14:31;24.08;;;11.18;;
33190;SDS011;19554;42.652;23.364;2023-03-13T07:17:00;19.17;;;10.95;;
33190;SDS011;19554;42.652;23.364;2023-03-13T07:19:25;17.02;;;11.52;;
33190;SDS011;19554;42.652;23.364;2023-03-13T07:21:51;17.27;;;11.60;;
33190;SDS011;19554;42.652;23.364;2023-03-13T07:24:17;20.73;;;11.73;;
33190;SDS011;19554;42.652;23.364;2023-03-13T07:26:42;25.45;;;14.57;;
33190;SDS011;19554;42.652;23.364;2023-03-13T07:29:08;31.25;;;15.10;;
33190;SDS011;19554;42.652;23.364;2023-03-13T07:31:34;23.25;;;14.02;;
33190;SDS011;19554;42.652;23.364;2023-03-13T07:33:59;21.35;;;15.02;;
33190;SDS011;19554;42.652;23.364;2023-03-13T07:36:25;24.77;;;14.98;;
33190;SDS011;19554;42.652;23.364;2023-03-13T07:38:50;24.83;;;14.93;;
33190;SDS011;19554;42.652;23.364;2023-03-13T07:41:17;25.48;;;14.88;;
33190;SDS011;19554;42.652;23.364;2023-03-13T07:43:43;22.50;;;14.65;;
33190;SDS011;19554;42.652;23.364;2023-03-13T07:46:13;29.05;;;16.08;;
33190;SDS011;19554;42.652;23.364;2023-03-13T07:51:07;25.77;;;15.35;;
33190;SDS011;19554;42.652;23.364;2023-03-13T07:53:36;29.55;;;16.50;;
33190;SDS011;19554;42.652;23.364;2023-03-13T07:56:11;26.73;;;16.70;;
33190;SDS011;19554;42.652;23.364;2023-03-13T07:58:39;28.08;;;15.98;;
33190;SDS011;19554;42.652;23.364;2023-03-13T08:03:34;32.55;;;16.85;;
33190;SDS011;19554;42.652;23.364;2023-03-13T08:06:00;20.98;;;14.82;;
33190;SDS011;19554;42.652;23.364;2023-03-13T08:08:33;27.88;;;16.95;;
33190;SDS011;19554;42.652;23.364;2023-03-13T08:10:59;22.90;;;14.60;;
33190;SDS011;19554;42.652;23.364;2023-03-13T08:13:26;26.02;;;16.60;;
33190;SDS011;19554;42.652;23.364;2023-03-13T08:15:51;24.13;;;15.63;;
33190;SDS011;19554;42.652;23.364;2023-03-13T08:18:16;28.50;;;16.73;;
33190;SDS011;19554;42.652;23.364;2023-03-13T08:20:42;27.90;;;16.15;;
33190;SDS011;19554;42.652;23.364;2023-03-13T08:23:07;25.17;;;16.42;;
33190;SDS011;19554;42.652;23.364;2023-03-13T08:25:33;30.90;;;17.08;;
33190;SDS011;19554;42.652;23.364;2023-03-13T08:27:58;27.45;;;15.82;;
33190;SDS011;19554;42.652;23.364;2023-03-13T08:30:23;27.02;;;15.32;;
33190;SDS011;19554;42.652;23.364;2023-03-13T08:32:49;26.40;;;16.35;;
33190;SDS011;19554;42.652;23.364;2023-03-13T08:35:14;24.23;;;14.43;;
33190;SDS011;19554;42.652;23.364;2023-03-13T08:37:39;23.88;;;14.90;;
33190;SDS011;19554;42.652;23.364;2023-03-13T08:40:05;27.95;;;15.68;;
33190;SDS011;19554;42.652;23.364;2023-03-13T08:42:35;23.50;;;15.55;;
33190;SDS011;19554;42.652;23.364;2023-03-13T08:45:02;23.00;;;15.18;;
33190;SDS011;19554;42.652;23.364;2023-03-13T08:47:28;26.05;;;15.07;;
33190;SDS011;19554;42.652;23.364;2023-03-13T08:49:53;24.77;;;14.73;;
33190;SDS011;19554;42.652;23.364;2023-03-13T08:52:19;26.10;;;15.95;;
33190;SDS011;19554;42.652;23.364;2023-03-13T08:54:47;22.77;;;14.93;;
33190;SDS011;19554;42.652;23.364;2023-03-13T08:57:12;26.75;;;15.77;;
33190;SDS011;19554;42.652;23.364;2023-03-13T08:59:39;19.75;;;14.70;;
33190;SDS011;19554;42.652;23.364;2023-03-13T09:02:04;24.27;;;14.48;;
33190;SDS011;19554;42.652;23.364;2023-03-13T09:04:30;20.70;;;13.65;;
33190;SDS011;19554;42.652;23.364;2023-03-13T09:06:55;30.45;;;14.25;;
33190;SDS011;19554;42.652;23.364;2023-03-13T09:09:20;20.55;;;14.40;;
33190;SDS011;19554;42.652;23.364;2023-03-13T09:11:46;23.00;;;13.55;;
33190;SDS011;19554;42.652;23.364;2023-03-13T09:14:11;31.17;;;14.52;;
33190;SDS011;19554;42.652;23.364;2023-03-13T09:16:37;18.60;;;13.20;;
33190;SDS011;19554;42.652;23.364;2023-03-13T09:19:02;23.55;;;15.27;;
33190;SDS011;19554;42.652;23.364;2023-03-13T09:21:29;20.88;;;14.10;;
33190;SDS011;19554;42.652;23.364;2023-03-13T09:23:57;22.20;;;14.57;;
33190;SDS011;19554;42.652;23.364;2023-03-13T09:26:23;23.10;;;15.25;;
33190;SDS011;19554;42.652;23.364;2023-03-13T09:28:50;21.70;;;15.13;;
33190;SDS011;19554;42.652;23.364;2023-03-13T09:31:17;26.77;;;15.45;;
33190;SDS011;19554;42.652;23.364;2023-03-13T09:33:44;23.00;;;14.00;;
33190;SDS011;19554;42.652;23.364;2023-03-13T09:36:11;20.55;;;14.05;;
33190;SDS011;19554;42.652;23.364;2023-03-13T09:38:38;20.80;;;14.93;;
33190;SDS011;19554;42.652;23.364;2023-03-13T09:41:26;22.77;;;14.38;;
33190;SDS011;19554;42.652;23.364;2023-03-13T09:46:38;24.00;;;14.65;;
33190;SDS011;19554;42.652;23.364;2023-03-13T09:54:49;23.13;;;14.48;;
33190;SDS011;19554;42.652;23.364;2023-03-13T09:57:31;22.75;;;13.93;;
33190;SDS011;19554;42.652;23.364;2023-03-13T10:00:10;18.65;;;12.82;;
33190;SDS011;19554;42.652;23.364;2023-03-13T10:02:43;21.58;;;13.70;;
33190;SDS011;19554;42.652;23.364;2023-03-13T10:05:21;22.35;;;13.43;;
33190;SDS011;19554;42.652;23.364;2023-03-13T10:07:58;22.02;;;13.52;;
33190;SDS011;19554;42.652;23.364;2023-03-13T10:13:09;22.35;;;14.25;;
33190;SDS011;19554;42.652;23.364;2023-03-13T10:15:51;23.33;;;14.68;;
33190;SDS011;19554;42.652;23.364;2023-03-13T10:18:21;22.15;;;15.35;;
33190;SDS011;19554;42.652;23.364;2023-03-13T10:20:49;21.20;;;13.77;;
33190;SDS011;19554;42.652;23.364;2023-03-13T10:23:21;22.17;;;14.23;;
33190;SDS011;19554;42.652;23.364;2023-03-13T10:25:57;22.15;;;14.18;;
33190;SDS011;19554;42.652;23.364;2023-03-13T10:28:23;25.70;;;13.98;;
33190;SDS011;19554;42.652;23.364;2023-03-13T10:30:49;18.70;;;13.80;;
33190;SDS011;19554;42.652;23.364;2023-03-13T10:33:25;23.83;;;13.95;;
33190;SDS011;19554;42.652;23.364;2023-03-13T10:36:25;23.35;;;13.55;;
33190;SDS011;19554;42.652;23.364;2023-03-13T10:38:48;27.25;;;14.20;;
33190;SDS011;19554;42.652;23.364;2023-03-13T10:41:29;23.90;;;14.02;;
33190;SDS011;19554;42.652;23.364;2023-03-13T10:44:01;20.92;;;13.32;;
33190;SDS011;19554;42.652;23.364;2023-03-13T10:46:30;22.70;;;13.93;;
33190;SDS011;19554;42.652;23.364;2023-03-13T10:49:02;21.88;;;15.80;;
33190;SDS011;19554;42.652;23.364;2023-03-13T10:51:37;21.77;;;13.05;;
33190;SDS011;19554;42.652;23.364;2023-03-13T10:54:12;21.10;;;14.05;;
33190;SDS011;19554;42.652;23.364;2023-03-13T10:56:39;20.08;;;13.95;;
33190;SDS011;19554;42.652;23.364;2023-03-13T10:59:04;21.98;;;13.98;;
33190;SDS011;19554;42.652;23.364;2023-03-13T11:01:46;18.38;;;12.82;;
33190;SDS011;19554;42.652;23.364;2023-03-13T11:04:45;19.50;;;14.38;;
33190;SDS011;19554;42.652;23.364;2023-03-13T11:07:04;20.27;;;12.13;;
33190;SDS011;19554;42.652;23.364;2023-03-13T11:09:38;23.65;;;13.13;;
33190;SDS011;19554;42.652;23.364;2023-03-13T11:12:08;19.13;;;13.65;;
33190;SDS011;19554;42.652;23.364;2023-03-13T11:14:41;22.73;;;13.75;;
33190;SDS011;19554;42.652;23.364;2023-03-13T11:25:20;17.17;;;12.45;;
33190;SDS011;19554;42.652;23.364;2023-03-13T11:36:54;22.15;;;14.55;;
33190;SDS011;19554;42.652;23.364;2023-03-13T11:44:56;19.42;;;12.65;;
33190;SDS011;19554;42.652;23.364;2023-03-13T11:47:46;16.40;;;12.05;;
33190;SDS011;19554;42.652;23.364;2023-03-13T11:55:27;17.02;;;12.13;;
33190;SDS011;19554;42.652;23.364;2023-03-13T12:00:34;17.55;;;12.63;;
33190;SDS011;19554;42.652;23.364;2023-03-13T12:05:47;17.85;;;12.05;;
33190;SDS011;19554;42.652;23.364;2023-03-13T12:08:19;17.88;;;12.52;;
33190;SDS011;19554;42.652;23.364;2023-03-13T12:13:41;18.38;;;12.57;;
33190;SDS011;19554;42.652;23.364;2023-03-13T12:16:11;20.92;;;13.05;;
33190;SDS011;19554;42.652;23.364;2023-03-13T12:18:41;20.95;;;12.77;;
33190;SDS011;19554;42.652;23.364;2023-03-13T12:21:17;14.88;;;11.63;;
33190;SDS011;19554;42.652;23.364;2023-03-13T12:23:56;18.98;;;12.35;;
33190;SDS011;19554;42.652;23.364;2023-03-13T12:29:19;21.17;;;12.57;;
33190;SDS011;19554;42.652;23.364;2023-03-13T12:31:51;16.80;;;12.45;;
33190;SDS011;19554;42.652;23.364;2023-03-13T12:35:15;16.52;;;10.98;;
33190;SDS011;19554;42.652;23.364;2023-03-13T12:48:41;18.35;;;11.75;;
33190;SDS011;19554;42.652;23.364;2023-03-13T13:00:18;19.52;;;12.80;;
33190;SDS011;19554;42.652;23.364;2023-03-13T13:02:47;17.48;;;11.15;;
33190;SDS011;19554;42.652;23.364;2023-03-13T13:05:30;22.23;;;12.40;;
33190;SDS011;19554;42.652;23.364;2023-03-13T13:07:55;16.33;;;12.07;;
33190;SDS011;19554;42.652;23.364;2023-03-13T13:10:22;18.77;;;12.65;;
33190;SDS011;19554;42.652;23.364;2023-03-13T13:15:44;17.08;;;11.63;;
33190;SDS011;19554;42.652;23.364;2023-03-13T13:18:22;22.30;;;12.82;;
33190;SDS011;19554;42.652;23.364;2023-03-13T13:21:24;22.30;;;12.80;;
33190;SDS011;19554;42.652;23.364;2023-03-13T13:23:44;24.55;;;14.43;;
33190;SDS011;19554;42.652;23.364;2023-03-13T13:28:57;20.20;;;14.43;;
33190;SDS011;19554;42.652;23.364;2023-03-13T13:36:52;21.83;;;13.57;;
33190;SDS011;19554;42.652;23.364;2023-03-13T13:47:26;23.15;;;14.10;;
33190;SDS011;19554;42.652;23.364;2023-03-13T13:49:54;19.10;;;13.60;;
33190;SDS011;19554;42.652;23.364;2023-03-13T13:52:32;21.90;;;14.10;;
33190;SDS011;19554;42.652;23.364;2023-03-13T13:55:03;21.17;;;13.73;;
33190;SDS011;19554;42.652;23.364;2023-03-13T13:57:51;22.42;;;13.35;;
33190;SDS011;19554;42.652;23.364;2023-03-13T14:00:24;19.52;;;13.93;;
33190;SDS011;19554;42.652;23.364;2023-03-13T14:02:53;20.48;;;12.95;;
33190;SDS011;19554;42.652;23.364;2023-03-13T14:05:21;24.20;;;13.90;;
33190;SDS011;19554;42.652;23.364;2023-03-13T14:15:36;23.20;;;14.52;;
33190;SDS011;19554;42.652;23.364;2023-03-13T14:18:10;20.73;;;13.50;;
33190;SDS011;19554;42.652;23.364;2023-03-13T14:23:14;22.65;;;13.45;;
33190;SDS011;19554;42.652;23.364;2023-03-13T14:25:52;23.20;;;14.05;;
33190;SDS011;19554;42.652;23.364;2023-03-13T14:28:21;21.55;;;12.93;;
33190;SDS011;19554;42.652;23.364;2023-03-13T14:30:52;19.50;;;12.95;;
33190;SDS011;19554;42.652;23.364;2023-03-13T14:33:19;21.77;;;12.38;;
33190;SDS011;19554;42.652;23.364;2023-03-13T14:35:45;19.58;;;13.00;;
33190;SDS011;19554;42.652;23.364;2023-03-13T14:38:21;21.77;;;13.02;;
33190;SDS011;19554;42.652;23.364;2023-03-13T14:40:50;22.33;;;13.77;;
33190;SDS011;19554;42.652;23.364;2023-03-13T14:45:45;23.60;;;13.77;;
33190;SDS011;19554;42.652;23.364;2023-03-13T14:48:23;24.80;;;14.35;;
33190;SDS011;19554;42.652;23.364;2023-03-13T14:51:03;21.52;;;12.68;;
33190;SDS011;19554;42.652;23.364;2023-03-13T14:53:34;23.52;;;13.85;;
33190;SDS011;19554;42.652;23.364;2023-03-13T14:56:09;22.20;;;13.52;;
33190;SDS011;19554;42.652;23.364;2023-03-13T14:58:37;21.58;;;13.15;;
33190;SDS011;19554;42.652;23.364;2023-03-13T15:03:58;24.90;;;15.13;;
33190;SDS011;19554;42.652;23.364;2023-03-13T15:06:24;29.30;;;16.10;;
33190;SDS011;19554;42.652;23.364;2023-03-13T15:11:34;24.42;;;14.95;;
33190;SDS011;19554;42.652;23.364;2023-03-13T15:14:03;21.48;;;13.10;;
33190;SDS011;19554;42.652;23.364;2023-03-13T15:16:48;24.83;;;14.10;;
33190;SDS011;19554;42.652;23.364;2023-03-13T15:19:13;19.77;;;13.10;;
33190;SDS011;19554;42.652;23.364;2023-03-13T15:21:39;24.92;;;13.95;;
33190;SDS011;19554;42.652;23.364;2023-03-13T15:24:11;21.77;;;13.05;;
33190;SDS011;19554;42.652;23.364;2023-03-13T15:26:39;24.35;;;13.18;;
33190;SDS011;19554;42.652;23.364;2023-03-13T15:29:04;23.38;;;13.18;;
33190;SDS011;19554;42.652;23.364;2023-03-13T15:31:30;27.70;;;13.80;;
33190;SDS011;19554;42.652;23.364;2023-03-13T15:33:57;28.30;;;16.02;;
33190;SDS011;19554;42.652;23.364;2023-03-13T15:36:24;27.40;;;16.13;;
33190;SDS011;19554;42.652;23.364;2023-03-13T15:38:51;21.85;;;14.68;;
33190;SDS011;19554;42.652;23.364;2023-03-13T15:41:18;20.88;;;13.25;;
33190;SDS011;19554;42.652;23.364;2023-03-13T15:43:44;28.90;;;14.30;;
33190;SDS011;19554;42.652;23.364;2023-03-13T15:46:12;27.13;;;16.13;;
33190;SDS011;19554;42.652;23.364;2023-03-13T15:48:38;24.10;;;14.15;;
33190;SDS011;19554;42.652;23.364;2023-03-13T15:51:05;26.88;;;14.18;;
33190;SDS011;19554;42.652;23.364;2023-03-13T15:53:34;26.63;;;13.80;;
33190;SDS011;19554;42.652;23.364;2023-03-13T15:56:00;22.83;;;13.23;;
33190;SDS011;19554;42.652;23.364;2023-03-13T15:58:28;22.73;;;14.10;;
33190;SDS011;19554;42.652;23.364;2023-03-13T16:00:54;21.15;;;13.65;;
33190;SDS011;19554;42.652;23.364;2023-03-13T16:03:22;21.77;;;13.45;;
33190;SDS011;19554;42.652;23.364;2023-03-13T16:05:49;25.00;;;14.48;;
33190;SDS011;19554;42.652;23.364;2023-03-13T16:08:16;24.20;;;14.10;;
33190;SDS011;19554;42.652;23.364;2023-03-13T16:10:43;26.40;;;15.65;;